Amasya, Turkey

8:55 AM EET on October 31, 2014 (GMT +0200)
Merzifon Air Base | Change Station
CLOSE
Current Station
Airport
Location: Merzifon,
Elevation: 1755 ft
Nearby Weather Stations

Elev 1755 ft 40.83 °N, 35.52 °E | Updated 35 minutes ago

Light Rain Showers
Light Showers Rain Mist
50 °F
Feels Like 50 °F
N
1
Wind Variable Wind from West

Today
High -- | Low -- °F
--% Chance of Precip.
Yesterday
High -- | Low -- °F
Precip. -- in
6:05 AM 4:34 PM
First Quarter, 52% visible
Pressure 29.92 in
Visibility 2.5 miles
Clouds Scattered Clouds 1000 ft
Mostly Cloudy 3200 ft
Dew Point 50 °F
Humidity 100%
Rainfall 0.00 in
Snow Depth Not available.
UV 1 out of 12
Pollen Not available.
Air Quality Not available.
Flu Activity Not available.
METAR LTAP 310620Z 26001KT 4000 -SHRA BR SCT010 BKN032 10/10 Q1013 NOSIG

More Conditions Fewer Conditions

Pressure 29.92 in
Visibility 2.5 miles
Clouds Scattered Clouds 1000 ft
Mostly Cloudy 3200 ft
Dew Point 50 °F
Humidity 100%
Rainfall 0.00 in
Snow Depth Not available.
UV 1 out of 12
Pollen Not available.
Air Quality Not available.
Flu Activity Not available.
METAR LTAP 310620Z 26001KT 4000 -SHRA BR SCT010 BKN032 10/10 Q1013 NOSIG

More Conditions Fewer Conditions

10-Day Weather Forecast

Almanac

Astronomy

Oct. 31, 2014 Rise Set
Actual Time
Civil Twilight
Nautical Twilight
Astronomical Twilight
Moon
Length of Visible Light
Length of Day
Tomorrow will be .
, % of the Moon is Illuminated

Today's Extremes

Country Highs Country Lows

Community

WunderPhotos

Upload Photos

1,766,571 photos uploaded!

WunderBlogs® & News

Nearby

Air Quality

  Air Quality AQ Index Pollutant
Not available.

Snow Depth

Station Depth Elevation

Earthquake Activity

City Distance Mag. Time & Date
Minimum magnitude displayed is 2.5.

Coastal Water Temperatures

Place Temperature

Nearby Weather Stations